sensor_id;sensor_type;location;lat;lon;timestamp;pressure;altitude;pressure_sealevel;temperature;humidity
53647;BME280;39550;52.230;5.194;2023-07-13T00:01:11;101195.84;;;19.78;63.09
53647;BME280;39550;52.230;5.194;2023-07-13T00:03:37;101199.34;;;19.77;63.29
53647;BME280;39550;52.230;5.194;2023-07-13T00:06:02;101196.75;;;19.77;63.71
53647;BME280;39550;52.230;5.194;2023-07-13T00:08:30;101204.59;;;19.77;63.68
53647;BME280;39550;52.230;5.194;2023-07-13T00:10:55;101204.63;;;19.75;63.33
53647;BME280;39550;52.230;5.194;2023-07-13T00:13:21;101202.00;;;19.75;63.87
53647;BME280;39550;52.230;5.194;2023-07-13T00:15:46;101203.81;;;19.73;63.65
53647;BME280;39550;52.230;5.194;2023-07-13T00:18:11;101205.50;;;19.74;64.10
53647;BME280;39550;52.230;5.194;2023-07-13T00:20:37;101200.31;;;19.72;63.91
53647;BME280;39550;52.230;5.194;2023-07-13T00:23:02;101206.44;;;19.71;64.24
53647;BME280;39550;52.230;5.194;2023-07-13T00:25:27;101205.50;;;19.74;63.73
53647;BME280;39550;52.230;5.194;2023-07-13T00:27:53;101197.75;;;19.71;63.71
53647;BME280;39550;52.230;5.194;2023-07-13T00:30:18;101200.38;;;19.71;64.09
53647;BME280;39550;52.230;5.194;2023-07-13T00:32:44;101200.41;;;19.69;63.86
53647;BME280;39550;52.230;5.194;2023-07-13T00:35:15;101207.41;;;19.69;64.22
53647;BME280;39550;52.230;5.194;2023-07-13T00:37:41;101200.44;;;19.68;64.23
53647;BME280;39550;52.230;5.194;2023-07-13T00:40:07;101203.94;;;19.67;64.09
53647;BME280;39550;52.230;5.194;2023-07-13T00:42:32;101206.59;;;19.65;64.10
53647;BME280;39550;52.230;5.194;2023-07-13T00:47:29;101198.81;;;19.64;64.21
53647;BME280;39550;52.230;5.194;2023-07-13T00:49:54;101196.19;;;19.64;64.15
53647;BME280;39550;52.230;5.194;2023-07-13T00:52:20;101191.00;;;19.62;64.25
53647;BME280;39550;52.230;5.194;2023-07-13T00:54:45;101199.72;;;19.61;64.35
53647;BME280;39550;52.230;5.194;2023-07-13T00:57:12;101202.34;;;19.61;64.17
53647;BME280;39550;52.230;5.194;2023-07-13T00:59:39;101192.78;;;19.60;64.19
53647;BME280;39550;52.230;5.194;2023-07-13T01:02:07;101202.34;;;19.61;64.63
53647;BME280;39550;52.230;5.194;2023-07-13T01:04:32;101194.59;;;19.58;64.49
53647;BME280;39550;52.230;5.194;2023-07-13T01:06:58;101198.91;;;19.59;64.24
53647;BME280;39550;52.230;5.194;2023-07-13T01:09:25;101205.03;;;19.58;64.31
53647;BME280;39550;52.230;5.194;2023-07-13T01:11:50;101208.47;;;19.60;65.05
53647;BME280;39550;52.230;5.194;2023-07-13T01:14:16;101210.28;;;19.58;64.38
53647;BME280;39550;52.230;5.194;2023-07-13T01:16:42;101206.81;;;19.56;64.45
53647;BME280;39550;52.230;5.194;2023-07-13T01:19:50;101199.84;;;19.56;64.40
53647;BME280;39550;52.230;5.194;2023-07-13T01:22:01;101203.41;;;19.54;64.37
53647;BME280;39550;52.230;5.194;2023-07-13T01:24:29;101206.91;;;19.53;64.48
53647;BME280;39550;52.230;5.194;2023-07-13T01:26:55;101211.28;;;19.52;64.51
53647;BME280;39550;52.230;5.194;2023-07-13T01:29:23;101208.66;;;19.52;64.36
53647;BME280;39550;52.230;5.194;2023-07-13T01:31:48;101210.41;;;19.52;64.42
53647;BME280;39550;52.230;5.194;2023-07-13T01:34:14;101206.97;;;19.50;64.82
53647;BME280;39550;52.230;5.194;2023-07-13T01:36:39;101213.94;;;19.51;64.87
53647;BME280;39550;52.230;5.194;2023-07-13T01:39:04;101213.94;;;19.51;64.37
53647;BME280;39550;52.230;5.194;2023-07-13T01:41:30;101221.78;;;19.49;64.45
53647;BME280;39550;52.230;5.194;2023-07-13T01:43:55;101220.94;;;19.49;64.45
53647;BME280;39550;52.230;5.194;2023-07-13T01:46:20;101218.34;;;19.47;64.58
53647;BME280;39550;52.230;5.194;2023-07-13T01:48:45;101217.50;;;19.47;64.66
53647;BME280;39550;52.230;5.194;2023-07-13T01:51:11;101215.78;;;19.46;64.81
53647;BME280;39550;52.230;5.194;2023-07-13T01:53:36;101221.81;;;19.48;64.51
53647;BME280;39550;52.230;5.194;2023-07-13T01:56:01;101227.09;;;19.46;64.81
53647;BME280;39550;52.230;5.194;2023-07-13T01:58:27;101223.66;;;19.44;64.66
53647;BME280;39550;52.230;5.194;2023-07-13T02:00:52;101221.94;;;19.43;64.68
53647;BME280;39550;52.230;5.194;2023-07-13T02:03:17;101223.72;;;19.43;64.66
53647;BME280;39550;52.230;5.194;2023-07-13T02:05:44;101222.88;;;19.40;65.18
53647;BME280;39550;52.230;5.194;2023-07-13T02:08:10;101222.88;;;19.40;64.80
53647;BME280;39550;52.230;5.194;2023-07-13T02:10:36;101230.75;;;19.39;64.74
53647;BME280;39550;52.230;5.194;2023-07-13T02:13:03;101220.28;;;19.39;65.22
53647;BME280;39550;52.230;5.194;2023-07-13T02:15:29;101228.13;;;19.39;64.83
53647;BME280;39550;52.230;5.194;2023-07-13T02:17:54;101229.91;;;19.37;64.89
53647;BME280;39550;52.230;5.194;2023-07-13T02:20:20;101230.81;;;19.36;65.02
53647;BME280;39550;52.230;5.194;2023-07-13T02:22:45;101229.94;;;19.35;64.92
53647;BME280;39550;52.230;5.194;2023-07-13T02:25:10;101243.94;;;19.34;65.06
53647;BME280;39550;52.230;5.194;2023-07-13T02:27:36;101242.19;;;19.33;65.20
53647;BME280;39550;52.230;5.194;2023-07-13T02:30:01;101235.25;;;19.32;65.15
53647;BME280;39550;52.230;5.194;2023-07-13T02:32:27;101236.97;;;19.33;65.04
53647;BME280;39550;52.230;5.194;2023-07-13T02:34:52;101233.47;;;19.34;65.13
53647;BME280;39550;52.230;5.194;2023-07-13T02:37:18;101237.81;;;19.34;65.51
53647;BME280;39550;52.230;5.194;2023-07-13T02:39:43;101237.03;;;19.30;65.13
53647;BME280;39550;52.230;5.194;2023-07-13T02:42:09;101240.53;;;19.29;65.00
53647;BME280;39550;52.230;5.194;2023-07-13T02:44:34;101246.63;;;19.30;65.35
53647;BME280;39550;52.230;5.194;2023-07-13T02:47:00;101240.53;;;19.29;65.55
53647;BME280;39550;52.230;5.194;2023-07-13T02:49:25;101249.28;;;19.28;65.43
53647;BME280;39550;52.230;5.194;2023-07-13T02:51:51;101244.94;;;19.29;65.61
53647;BME280;39550;52.230;5.194;2023-07-13T02:54:18;101245.78;;;19.29;65.52
53647;BME280;39550;52.230;5.194;2023-07-13T02:56:43;101241.44;;;19.28;65.38
53647;BME280;39550;52.230;5.194;2023-07-13T02:59:10;101238.81;;;19.28;65.27
53647;BME280;39550;52.230;5.194;2023-07-13T03:01:36;101245.84;;;19.26;65.29
53647;BME280;39550;52.230;5.194;2023-07-13T03:04:01;101236.31;;;19.23;65.41
53647;BME280;39550;52.230;5.194;2023-07-13T03:06:27;101245.88;;;19.25;65.64
53647;BME280;39550;52.230;5.194;2023-07-13T03:08:55;101245.88;;;19.23;65.61
53647;BME280;39550;52.230;5.194;2023-07-13T03:11:21;101238.97;;;19.22;65.62
53647;BME280;39550;52.230;5.194;2023-07-13T03:13:46;101236.38;;;19.20;65.83
53647;BME280;39550;52.230;5.194;2023-07-13T03:16:12;101240.72;;;19.20;65.56
53647;BME280;39550;52.230;5.194;2023-07-13T03:18:37;101252.06;;;19.20;65.84
53647;BME280;39550;52.230;5.194;2023-07-13T03:21:03;101244.19;;;19.22;65.66
53647;BME280;39550;52.230;5.194;2023-07-13T03:23:29;101245.97;;;19.20;65.80
53647;BME280;39550;52.230;5.194;2023-07-13T03:26:04;101243.38;;;19.18;65.78
53647;BME280;39550;52.230;5.194;2023-07-13T03:28:30;101234.69;;;19.18;65.82
53647;BME280;39550;52.230;5.194;2023-07-13T03:31:03;101243.38;;;19.18;66.03
53647;BME280;39550;52.230;5.194;2023-07-13T03:33:29;101242.53;;;19.18;65.85
53647;BME280;39550;52.230;5.194;2023-07-13T03:35:54;101255.63;;;19.16;65.68
53647;BME280;39550;52.230;5.194;2023-07-13T03:38:20;101263.47;;;19.16;65.75
53647;BME280;39550;52.230;5.194;2023-07-13T03:40:45;101257.38;;;19.16;66.35
53647;BME280;39550;52.230;5.194;2023-07-13T03:43:10;101259.97;;;19.16;65.83
53647;BME280;39550;52.230;5.194;2023-07-13T03:45:37;101258.25;;;19.15;65.74
53647;BME280;39550;52.230;5.194;2023-07-13T03:48:03;101265.22;;;19.16;66.31
53647;BME280;39550;52.230;5.194;2023-07-13T03:50:29;101261.78;;;19.14;65.75
53647;BME280;39550;52.230;5.194;2023-07-13T03:52:54;101261.78;;;19.14;65.69
53647;BME280;39550;52.230;5.194;2023-07-13T03:55:21;101261.78;;;19.14;66.51
53647;BME280;39550;52.230;5.194;2023-07-13T03:57:48;101268.78;;;19.12;66.18
53647;BME280;39550;52.230;5.194;2023-07-13T04:00:13;101263.59;;;19.10;66.29
53647;BME280;39550;52.230;5.194;2023-07-13T04:02:39;101269.69;;;19.11;66.48
53647;BME280;39550;52.230;5.194;2023-07-13T04:05:04;101268.84;;;19.09;66.11
53647;BME280;39550;52.230;5.194;2023-07-13T04:07:29;101274.91;;;19.09;66.40
53647;BME280;39550;52.230;5.194;2023-07-13T04:10:01;101272.34;;;19.08;66.10
53647;BME280;39550;52.230;5.194;2023-07-13T04:12:26;101281.09;;;19.07;66.10
53647;BME280;39550;52.230;5.194;2023-07-13T04:14:52;101285.41;;;19.08;66.54
53647;BME280;39550;52.230;5.194;2023-07-13T04:17:17;101283.72;;;19.07;66.31
53647;BME280;39550;52.230;5.194;2023-07-13T04:19:43;101295.00;;;19.07;66.06
53647;BME280;39550;52.230;5.194;2023-07-13T04:22:09;101289.81;;;19.05;66.23
53647;BME280;39550;52.230;5.194;2023-07-13T04:24:34;101282.88;;;19.04;66.44
53647;BME280;39550;52.230;5.194;2023-07-13T04:27:00;101289.88;;;19.02;66.20
53647;BME280;39550;52.230;5.194;2023-07-13T04:29:26;101290.75;;;19.01;66.52
53647;BME280;39550;52.230;5.194;2023-07-13T04:31:52;101297.72;;;19.02;66.46
53647;BME280;39550;52.230;5.194;2023-07-13T04:34:17;101294.25;;;19.00;66.22
53647;BME280;39550;52.230;5.194;2023-07-13T04:36:42;101298.59;;;19.01;66.26
53647;BME280;39550;52.230;5.194;2023-07-13T04:39:08;101303.81;;;19.01;66.37
53647;BME280;39550;52.230;5.194;2023-07-13T04:41:34;101296.00;;;19.01;66.28
53647;BME280;39550;52.230;5.194;2023-07-13T04:43:59;101302.09;;;19.00;66.63
53647;BME280;39550;52.230;5.194;2023-07-13T04:46:27;101303.91;;;18.98;66.30
53647;BME280;39550;52.230;5.194;2023-07-13T04:48:53;101297.78;;;18.98;66.44
53647;BME280;39550;52.230;5.194;2023-07-13T04:51:19;101298.66;;;18.98;66.43
53647;BME280;39550;52.230;5.194;2023-07-13T04:53:44;101296.94;;;18.97;66.55
53647;BME280;39550;52.230;5.194;2023-07-13T04:56:10;101303.91;;;18.98;66.51
53647;BME280;39550;52.230;5.194;2023-07-13T04:58:35;101302.16;;;18.97;66.63
53647;BME280;39550;52.230;5.194;2023-07-13T05:01:09;101295.19;;;18.98;66.47
53647;BME280;39550;52.230;5.194;2023-07-13T05:03:38;101301.28;;;18.97;66.68
53647;BME280;39550;52.230;5.194;2023-07-13T05:06:13;101303.91;;;18.98;66.84
53647;BME280;39550;52.230;5.194;2023-07-13T05:08:39;101306.44;;;19.01;66.68
53647;BME280;39550;52.230;5.194;2023-07-13T05:11:04;101310.69;;;19.07;66.26
53647;BME280;39550;52.230;5.194;2023-07-13T05:13:33;101310.63;;;19.09;66.49
53647;BME280;39550;52.230;5.194;2023-07-13T05:15:59;101316.88;;;19.01;66.32
53647;BME280;39550;52.230;5.194;2023-07-13T05:18:26;101319.56;;;18.98;66.62
53647;BME280;39550;52.230;5.194;2023-07-13T05:21:02;101328.31;;;18.96;66.76
53647;BME280;39550;52.230;5.194;2023-07-13T05:23:42;101324.81;;;18.95;66.54
53647;BME280;39550;52.230;5.194;2023-07-13T05:28:36;101330.06;;;18.94;67.04
53647;BME280;39550;52.230;5.194;2023-07-13T05:31:02;101330.06;;;18.94;67.04
53647;BME280;39550;52.230;5.194;2023-07-13T05:33:28;101330.94;;;18.96;66.96
53647;BME280;39550;52.230;5.194;2023-07-13T05:35:53;101334.38;;;18.96;66.72
53647;BME280;39550;52.230;5.194;2023-07-13T05:38:19;101339.63;;;18.96;66.88
53647;BME280;39550;52.230;5.194;2023-07-13T05:40:45;101344.84;;;18.96;66.89
53647;BME280;39550;52.230;5.194;2023-07-13T05:43:11;101342.19;;;18.98;66.81
53647;BME280;39550;52.230;5.194;2023-07-13T05:45:37;101337.00;;;18.96;66.49
53647;BME280;39550;52.230;5.194;2023-07-13T05:48:02;101343.94;;;18.97;66.70
53647;BME280;39550;52.230;5.194;2023-07-13T05:50:28;101344.78;;;18.99;66.81
53647;BME280;39550;52.230;5.194;2023-07-13T05:52:53;101343.94;;;18.97;66.85
53647;BME280;39550;52.230;5.194;2023-07-13T05:55:23;101344.78;;;18.99;66.89
53647;BME280;39550;52.230;5.194;2023-07-13T05:57:48;101345.69;;;18.98;66.67
53647;BME280;39550;52.230;5.194;2023-07-13T06:00:14;101347.38;;;18.99;67.53
53647;BME280;39550;52.230;5.194;2023-07-13T06:02:39;101356.09;;;19.00;67.14
53647;BME280;39550;52.230;5.194;2023-07-13T06:05:05;101349.09;;;19.00;67.07
53647;BME280;39550;52.230;5.194;2023-07-13T06:07:30;101357.66;;;19.09;66.71
53647;BME280;39550;52.230;5.194;2023-07-13T06:09:56;101370.75;;;19.07;66.82
53647;BME280;39550;52.230;5.194;2023-07-13T06:12:21;101364.69;;;19.07;66.93
53647;BME280;39550;52.230;5.194;2023-07-13T06:14:46;101363.03;;;19.02;67.04
53647;BME280;39550;52.230;5.194;2023-07-13T06:17:12;101372.59;;;19.02;67.11
53647;BME280;39550;52.230;5.194;2023-07-13T06:19:37;101373.50;;;18.99;67.17
53647;BME280;39550;52.230;5.194;2023-07-13T06:22:04;101375.28;;;18.97;67.65
53647;BME280;39550;52.230;5.194;2023-07-13T06:24:29;101371.84;;;18.95;67.56
53647;BME280;39550;52.230;5.194;2023-07-13T06:26:55;101368.34;;;18.96;67.72
53647;BME280;39550;52.230;5.194;2023-07-13T06:29:22;101375.22;;;19.00;67.28
53647;BME280;39550;52.230;5.194;2023-07-13T06:31:49;101367.38;;;19.02;67.24
53647;BME280;39550;52.230;5.194;2023-07-13T06:34:15;101371.72;;;19.01;67.35
53647;BME280;39550;52.230;5.194;2023-07-13T06:36:42;101376.84;;;19.06;67.40
53647;BME280;39550;52.230;5.194;2023-07-13T06:39:11;101377.75;;;19.05;67.13
53647;BME280;39550;52.230;5.194;2023-07-13T06:41:39;101364.66;;;19.08;67.04
53647;BME280;39550;52.230;5.194;2023-07-13T06:44:05;101368.97;;;19.09;66.96
53647;BME280;39550;52.230;5.194;2023-07-13T06:46:31;101371.50;;;19.14;66.99
53647;BME280;39550;52.230;5.194;2023-07-13T06:48:57;101377.47;;;19.20;66.65
53647;BME280;39550;52.230;5.194;2023-07-13T06:51:28;101385.28;;;19.22;66.67
53647;BME280;39550;52.230;5.194;2023-07-13T06:56:48;101392.41;;;19.14;66.77
53647;BME280;39550;52.230;5.194;2023-07-13T06:59:14;101382.19;;;19.01;67.03
53647;BME280;39550;52.230;5.194;2023-07-13T07:02:02;101397.00;;;18.99;67.45
53647;BME280;39550;52.230;5.194;2023-07-13T07:05:00;101420.63;;;18.93;67.99
53647;BME280;39550;52.230;5.194;2023-07-13T07:19:38;101441.75;;;18.78;69.74
53647;BME280;39550;52.230;5.194;2023-07-13T07:22:04;101437.41;;;18.77;69.81
53647;BME280;39550;52.230;5.194;2023-07-13T07:24:29;101433.06;;;18.76;69.47
53647;BME280;39550;52.230;5.194;2023-07-13T07:26:54;101426.13;;;18.75;70.08
53647;BME280;39550;52.230;5.194;2023-07-13T07:29:20;101431.34;;;18.75;70.28
53647;BME280;39550;52.230;5.194;2023-07-13T07:31:46;101433.97;;;18.75;69.96
53647;BME280;39550;52.230;5.194;2023-07-13T07:34:11;101426.09;;;18.78;69.56
53647;BME280;39550;52.230;5.194;2023-07-13T07:36:37;101422.56;;;18.79;69.68
53647;BME280;39550;52.230;5.194;2023-07-13T07:39:02;101414.84;;;18.74;68.91
53647;BME280;39550;52.230;5.194;2023-07-13T07:41:27;101425.34;;;18.71;71.28
53647;BME280;39550;52.230;5.194;2023-07-13T07:43:53;101419.19;;;18.74;69.78
53647;BME280;39550;52.230;5.194;2023-07-13T07:46:18;101420.00;;;18.77;69.96
53647;BME280;39550;52.230;5.194;2023-07-13T07:48:43;101418.22;;;18.79;69.74
53647;BME280;39550;52.230;5.194;2023-07-13T07:51:09;101422.56;;;18.79;69.17
53647;BME280;39550;52.230;5.194;2023-07-13T07:53:35;101422.50;;;18.85;69.41
53647;BME280;39550;52.230;5.194;2023-07-13T07:56:01;101419.00;;;18.86;69.53
53647;BME280;39550;52.230;5.194;2023-07-13T07:58:26;101421.59;;;18.87;69.54
53647;BME280;39550;52.230;5.194;2023-07-13T08:00:51;101427.69;;;18.88;69.98
53647;BME280;39550;52.230;5.194;2023-07-13T08:03:17;101424.94;;;18.96;69.75
53647;BME280;39550;52.230;5.194;2023-07-13T08:05:42;101427.53;;;18.97;69.10
53647;BME280;39550;52.230;5.194;2023-07-13T08:10:44;101422.25;;;19.00;69.68
53647;BME280;39550;52.230;5.194;2023-07-13T08:13:10;101415.28;;;18.99;68.93
53647;BME280;39550;52.230;5.194;2023-07-13T08:15:35;101408.25;;;19.04;69.05
53647;BME280;39550;52.230;5.194;2023-07-13T08:18:01;101402.84;;;19.14;68.74
53647;BME280;39550;52.230;5.194;2023-07-13T08:20:27;101412.38;;;19.15;68.35
53647;BME280;39550;52.230;5.194;2023-07-13T08:22:52;101427.31;;;19.10;68.34
53647;BME280;39550;52.230;5.194;2023-07-13T08:25:18;101425.63;;;19.05;68.52
53647;BME280;39550;52.230;5.194;2023-07-13T08:27:43;101425.72;;;18.99;68.52
53647;BME280;39550;52.230;5.194;2023-07-13T08:30:08;101424.91;;;18.97;68.73
53647;BME280;39550;52.230;5.194;2023-07-13T08:32:35;101409.28;;;18.96;68.90
53647;BME280;39550;52.230;5.194;2023-07-13T08:35:01;101422.41;;;18.91;68.92
53647;BME280;39550;52.230;5.194;2023-07-13T08:37:26;101445.09;;;18.89;69.18
53647;BME280;39550;52.230;5.194;2023-07-13T08:39:52;101444.22;;;18.85;69.47
53647;BME280;39550;52.230;5.194;2023-07-13T08:42:31;101453.81;;;18.85;69.65
53647;BME280;39550;52.230;5.194;2023-07-13T08:47:46;101444.28;;;18.82;69.73
53647;BME280;39550;52.230;5.194;2023-07-13T08:50:13;101450.34;;;18.83;69.81
53647;BME280;39550;52.230;5.194;2023-07-13T08:52:41;101438.22;;;18.82;70.09
53647;BME280;39550;52.230;5.194;2023-07-13T08:55:14;101448.59;;;18.85;69.50
53647;BME280;39550;52.230;5.194;2023-07-13T08:57:41;101447.63;;;18.92;69.65
53647;BME280;39550;52.230;5.194;2023-07-13T09:00:11;101433.56;;;18.99;68.74
53647;BME280;39550;52.230;5.194;2023-07-13T09:02:48;101437.06;;;19.00;68.89
53647;BME280;39550;52.230;5.194;2023-07-13T09:05:18;101442.22;;;19.03;68.43
53647;BME280;39550;52.230;5.194;2023-07-13T09:10:41;101451.75;;;19.05;68.65
53647;BME280;39550;52.230;5.194;2023-07-13T09:15:52;101442.91;;;19.13;68.22
53647;BME280;39550;52.230;5.194;2023-07-13T09:20:48;101448.03;;;19.19;68.40
53647;BME280;39550;52.230;5.194;2023-07-13T09:23:16;101453.22;;;19.22;68.25
53647;BME280;39550;52.230;5.194;2023-07-13T09:25:43;101449.81;;;19.17;68.45
53647;BME280;39550;52.230;5.194;2023-07-13T09:28:20;101452.44;;;19.17;68.49
53647;BME280;39550;52.230;5.194;2023-07-13T09:30:51;101462.03;;;19.15;68.63
53647;BME280;39550;52.230;5.194;2023-07-13T09:33:20;101464.63;;;19.16;68.74
53647;BME280;39550;52.230;5.194;2023-07-13T09:35:45;101473.25;;;19.20;68.46
53647;BME280;39550;52.230;5.194;2023-07-13T09:38:12;101461.03;;;19.23;68.73
53647;BME280;39550;52.230;5.194;2023-07-13T09:40:56;101457.47;;;19.28;68.34
53647;BME280;39550;52.230;5.194;2023-07-13T09:43:24;101468.66;;;19.34;68.10
53647;BME280;39550;52.230;5.194;2023-07-13T09:45:50;101461.66;;;19.36;68.03
53647;BME280;39550;52.230;5.194;2023-07-13T09:48:16;101465.19;;;19.32;67.77
53647;BME280;39550;52.230;5.194;2023-07-13T09:50:42;101461.66;;;19.36;67.79
53647;BME280;39550;52.230;5.194;2023-07-13T09:53:17;101454.81;;;19.29;68.34
53647;BME280;39550;52.230;5.194;2023-07-13T09:55:44;101453.22;;;19.22;68.74
53647;BME280;39550;52.230;5.194;2023-07-13T09:58:14;101458.47;;;19.19;68.94
53647;BME280;39550;52.230;5.194;2023-07-13T10:00:41;101467.22;;;19.18;68.89
53647;BME280;39550;52.230;5.194;2023-07-13T10:05:43;101475.81;;;19.23;68.76
53647;BME280;39550;52.230;5.194;2023-07-13T10:08:17;101474.00;;;19.28;68.74
53647;BME280;39550;52.230;5.194;2023-07-13T10:10:43;101473.81;;;19.37;68.09
53647;BME280;39550;52.230;5.194;2023-07-13T10:13:24;101472.16;;;19.33;68.29
53647;BME280;39550;52.230;5.194;2023-07-13T10:15:51;101474.00;;;19.28;68.43
53647;BME280;39550;52.230;5.194;2023-07-13T10:18:17;101476.59;;;19.28;68.88
53647;BME280;39550;52.230;5.194;2023-07-13T10:20:43;101471.31;;;19.31;69.04
53647;BME280;39550;52.230;5.194;2023-07-13T10:23:11;101474.78;;;19.33;68.27
53647;BME280;39550;52.230;5.194;2023-07-13T10:25:39;101481.81;;;19.28;68.86
53647;BME280;39550;52.230;5.194;2023-07-13T10:30:42;101489.59;;;19.31;68.45
53647;BME280;39550;52.230;5.194;2023-07-13T10:33:11;101485.25;;;19.32;68.57
53647;BME280;39550;52.230;5.194;2023-07-13T10:35:38;101490.50;;;19.32;68.43
53647;BME280;39550;52.230;5.194;2023-07-13T10:38:12;101493.13;;;19.30;68.48
53647;BME280;39550;52.230;5.194;2023-07-13T10:40:43;101498.28;;;19.33;68.54
53647;BME280;39550;52.230;5.194;2023-07-13T10:43:14;101499.19;;;19.32;68.46
53647;BME280;39550;52.230;5.194;2023-07-13T10:45:42;101487.97;;;19.26;68.89
53647;BME280;39550;52.230;5.194;2023-07-13T10:48:10;101498.38;;;19.27;68.95
53647;BME280;39550;52.230;5.194;2023-07-13T10:50:37;101503.59;;;19.30;68.55
53647;BME280;39550;52.230;5.194;2023-07-13T11:00:53;101513.19;;;19.28;68.29
53647;BME280;39550;52.230;5.194;2023-07-13T11:03:21;101517.50;;;19.31;68.49
53647;BME280;39550;52.230;5.194;2023-07-13T11:05:48;101515.47;;;19.47;67.42
53647;BME280;39550;52.230;5.194;2023-07-13T11:15:58;101515.25;;;19.57;67.39
53647;BME280;39550;52.230;5.194;2023-07-13T11:18:24;101524.22;;;19.46;67.58
53647;BME280;39550;52.230;5.194;2023-07-13T11:20:50;101520.78;;;19.42;67.64
53647;BME280;39550;52.230;5.194;2023-07-13T11:23:17;101523.28;;;19.48;67.38
53647;BME280;39550;52.230;5.194;2023-07-13T11:25:44;101524.06;;;19.52;67.41
53647;BME280;39550;52.230;5.194;2023-07-13T11:35:33;101525.66;;;19.62;66.68
53647;BME280;39550;52.230;5.194;2023-07-13T11:38:01;101524.78;;;19.62;66.80
53647;BME280;39550;52.230;5.194;2023-07-13T11:40:26;101525.53;;;19.68;66.07
53647;BME280;39550;52.230;5.194;2023-07-13T11:42:58;101521.06;;;19.73;66.11
53647;BME280;39550;52.230;5.194;2023-07-13T11:45:23;101530.72;;;19.70;66.27
53647;BME280;39550;52.230;5.194;2023-07-13T11:47:50;101528.16;;;19.67;66.28
53647;BME280;39550;52.230;5.194;2023-07-13T11:50:17;101530.69;;;19.71;66.16
53647;BME280;39550;52.230;5.194;2023-07-13T11:52:44;101526.41;;;19.67;66.44
53647;BME280;39550;52.230;5.194;2023-07-13T11:55:15;101520.22;;;19.71;66.06
53647;BME280;39550;52.230;5.194;2023-07-13T11:57:47;101535.97;;;19.68;66.30
53647;BME280;39550;52.230;5.194;2023-07-13T12:00:15;101522.84;;;19.71;66.11
53647;BME280;39550;52.230;5.194;2023-07-13T12:02:47;101534.06;;;19.77;65.93
53647;BME280;39550;52.230;5.194;2023-07-13T12:05:14;101536.66;;;19.80;65.91
53647;BME280;39550;52.230;5.194;2023-07-13T12:07:40;101531.38;;;19.83;65.72
53647;BME280;39550;52.230;5.194;2023-07-13T12:10:26;101521.69;;;19.88;65.69
53647;BME280;39550;52.230;5.194;2023-07-13T12:13:00;101525.91;;;19.94;65.04
53647;BME280;39550;52.230;5.194;2023-07-13T12:18:00;101535.66;;;19.87;65.57
53647;BME280;39550;52.230;5.194;2023-07-13T12:20:29;101527.44;;;20.05;64.77
53647;BME280;39550;52.230;5.194;2023-07-13T12:22:58;101536.03;;;20.12;64.39
53647;BME280;39550;52.230;5.194;2023-07-13T12:25:24;101523.72;;;20.16;64.25
53647;BME280;39550;52.230;5.194;2023-07-13T12:27:50;101527.03;;;20.24;63.93
53647;BME280;39550;52.230;5.194;2023-07-13T12:30:27;101520.78;;;20.31;63.73
53647;BME280;39550;52.230;5.194;2023-07-13T12:32:59;101536.44;;;20.34;64.39
53647;BME280;39550;52.230;5.194;2023-07-13T12:35:24;101533.13;;;20.26;64.43
53647;BME280;39550;52.230;5.194;2023-07-13T12:37:50;101545.44;;;20.21;64.33
53647;BME280;39550;52.230;5.194;2023-07-13T12:40:17;101531.25;;;20.31;64.08
53647;BME280;39550;52.230;5.194;2023-07-13T12:42:47;101534.34;;;20.49;63.10
53647;BME280;39550;52.230;5.194;2023-07-13T12:45:21;101536.09;;;20.50;63.51
53647;BME280;39550;52.230;5.194;2023-07-13T12:47:49;101525.50;;;20.54;62.63
53647;BME280;39550;52.230;5.194;2023-07-13T12:50:16;101526.97;;;20.66;62.63
53647;BME280;39550;52.230;5.194;2023-07-13T12:52:42;101529.13;;;20.49;62.94
53647;BME280;39550;52.230;5.194;2023-07-13T12:55:13;101527.88;;;20.26;63.89
53647;BME280;39550;52.230;5.194;2023-07-13T12:57:49;101532.41;;;20.57;63.23
53647;BME280;39550;52.230;5.194;2023-07-13T13:00:33;101540.97;;;20.65;62.28
53647;BME280;39550;52.230;5.194;2023-07-13T13:03:05;101540.28;;;20.57;63.29
53647;BME280;39550;52.230;5.194;2023-07-13T13:05:31;101546.69;;;20.44;63.49
53647;BME280;39550;52.230;5.194;2023-07-13T13:07:57;101543.78;;;20.56;63.64
53647;BME280;39550;52.230;5.194;2023-07-13T13:10:22;101542.53;;;20.74;62.54
53647;BME280;39550;52.230;5.194;2023-07-13T13:12:48;101549.25;;;20.86;61.88
53647;BME280;39550;52.230;5.194;2023-07-13T13:15:13;101541.19;;;20.95;61.57
53647;BME280;39550;52.230;5.194;2023-07-13T13:17:39;101538.50;;;20.97;61.70
53647;BME280;39550;52.230;5.194;2023-07-13T13:20:20;101553.19;;;21.04;61.76
53647;BME280;39550;52.230;5.194;2023-07-13T13:22:46;101557.41;;;21.09;61.31
53647;BME280;39550;52.230;5.194;2023-07-13T13:25:12;101555.47;;;21.18;60.80
53647;BME280;39550;52.230;5.194;2023-07-13T13:27:38;101553.69;;;21.20;61.28
53647;BME280;39550;52.230;5.194;2023-07-13T13:30:09;101559.44;;;20.98;61.69
53647;BME280;39550;52.230;5.194;2023-07-13T13:32:35;101558.16;;;20.79;62.26
53647;BME280;39550;52.230;5.194;2023-07-13T13:35:00;101555.84;;;21.02;61.51
53647;BME280;39550;52.230;5.194;2023-07-13T13:37:26;101561.53;;;21.18;60.85
53647;BME280;39550;52.230;5.194;2023-07-13T13:39:51;101564.28;;;21.14;61.28
53647;BME280;39550;52.230;5.194;2023-07-13T13:42:18;101565.41;;;21.39;60.72
53647;BME280;39550;52.230;5.194;2023-07-13T13:44:46;101560.88;;;21.46;60.59
53647;BME280;39550;52.230;5.194;2023-07-13T13:47:17;101568.97;;;21.01;61.90
53647;BME280;39550;52.230;5.194;2023-07-13T13:49:45;101572.38;;;21.04;61.44
53647;BME280;39550;52.230;5.194;2023-07-13T13:52:12;101567.66;;;21.19;60.96
53647;BME280;39550;52.230;5.194;2023-07-13T13:54:38;101566.03;;;21.49;60.26